sensor_id;sensor_type;location;lat;lon;timestamp;temperature;humidity
21417;DHT22;10869;52.238;10.716;2023-12-29T04:04:48;8.40;99.90
21417;DHT22;10869;52.238;10.716;2023-12-29T04:07:14;8.40;99.90
21417;DHT22;10869;52.238;10.716;2023-12-29T04:09:40;8.40;99.90
21417;DHT22;10869;52.238;10.716;2023-12-29T04:12:06;8.40;99.90
21417;DHT22;10869;52.238;10.716;2023-12-29T04:14:31;8.40;99.90
21417;DHT22;10869;52.238;10.716;2023-12-29T04:16:57;8.40;99.90
21417;DHT22;10869;52.238;10.716;2023-12-29T04:19:24;8.40;99.90
21417;DHT22;10869;52.238;10.716;2023-12-29T04:21:50;8.40;99.90
21417;DHT22;10869;52.238;10.716;2023-12-29T04:24:15;8.40;99.90
21417;DHT22;10869;52.238;10.716;2023-12-29T04:26:41;8.40;99.90
21417;DHT22;10869;52.238;10.716;2023-12-29T04:29:07;8.40;99.90
21417;DHT22;10869;52.238;10.716;2023-12-29T04:31:34;8.40;99.90
21417;DHT22;10869;52.238;10.716;2023-12-29T04:34:00;8.40;99.90
21417;DHT22;10869;52.238;10.716;2023-12-29T04:36:26;8.40;99.90
21417;DHT22;10869;52.238;10.716;2023-12-29T04:38:58;8.40;99.90
21417;DHT22;10869;52.238;10.716;2023-12-29T04:41:25;8.40;99.90
21417;DHT22;10869;52.238;10.716;2023-12-29T04:43:50;8.30;99.90
21417;DHT22;10869;52.238;10.716;2023-12-29T04:46:16;8.20;99.90
21417;DHT22;10869;52.238;10.716;2023-12-29T04:48:43;8.10;99.90
21417;DHT22;10869;52.238;10.716;2023-12-29T04:51:09;8.00;99.90
21417;DHT22;10869;52.238;10.716;2023-12-29T04:53:36;8.00;99.90
21417;DHT22;10869;52.238;10.716;2023-12-29T04:56:02;8.00;99.90
21417;DHT22;10869;52.238;10.716;2023-12-29T04:58:28;8.00;99.90
21417;DHT22;10869;52.238;10.716;2023-12-29T05:00:54;8.00;99.90
21417;DHT22;10869;52.238;10.716;2023-12-29T05:03:19;7.90;99.90
21417;DHT22;10869;52.238;10.716;2023-12-29T05:05:45;7.90;99.90
21417;DHT22;10869;52.238;10.716;2023-12-29T05:08:11;7.90;99.90
21417;DHT22;10869;52.238;10.716;2023-12-29T05:10:37;7.90;99.90
21417;DHT22;10869;52.238;10.716;2023-12-29T05:13:03;7.90;99.90
21417;DHT22;10869;52.238;10.716;2023-12-29T05:15:29;7.80;99.90
21417;DHT22;10869;52.238;10.716;2023-12-29T05:17:58;7.90;99.90
21417;DHT22;10869;52.238;10.716;2023-12-29T05:20:23;7.90;99.90
21417;DHT22;10869;52.238;10.716;2023-12-29T05:22:49;7.90;99.90
21417;DHT22;10869;52.238;10.716;2023-12-29T05:25:15;7.90;99.90
21417;DHT22;10869;52.238;10.716;2023-12-29T05:27:41;7.90;99.90
21417;DHT22;10869;52.238;10.716;2023-12-29T05:30:07;8.00;99.90
21417;DHT22;10869;52.238;10.716;2023-12-29T05:32:33;8.00;99.90
21417;DHT22;10869;52.238;10.716;2023-12-29T05:34:59;8.00;99.90
21417;DHT22;10869;52.238;10.716;2023-12-29T05:37:24;8.00;99.90
21417;DHT22;10869;52.238;10.716;2023-12-29T05:39:50;8.00;99.90
21417;DHT22;10869;52.238;10.716;2023-12-29T05:42:16;8.00;99.90
21417;DHT22;10869;52.238;10.716;2023-12-29T05:44:42;8.00;99.90
21417;DHT22;10869;52.238;10.716;2023-12-29T05:47:07;8.00;99.90
21417;DHT22;10869;52.238;10.716;2023-12-29T05:49:42;8.00;99.90
21417;DHT22;10869;52.238;10.716;2023-12-29T05:52:09;8.00;99.90
21417;DHT22;10869;52.238;10.716;2023-12-29T05:54:35;8.00;99.90
21417;DHT22;10869;52.238;10.716;2023-12-29T05:57:01;8.00;99.90
21417;DHT22;10869;52.238;10.716;2023-12-29T05:59:27;8.00;99.90
21417;DHT22;10869;52.238;10.716;2023-12-29T06:01:53;8.00;99.90
21417;DHT22;10869;52.238;10.716;2023-12-29T06:04:22;8.00;99.90
21417;DHT22;10869;52.238;10.716;2023-12-29T06:06:49;7.90;99.90
21417;DHT22;10869;52.238;10.716;2023-12-29T06:09:18;7.90;99.90
21417;DHT22;10869;52.238;10.716;2023-12-29T06:11:46;7.90;99.90
21417;DHT22;10869;52.238;10.716;2023-12-29T06:14:12;7.90;99.90
21417;DHT22;10869;52.238;10.716;2023-12-29T06:16:41;7.90;99.90
21417;DHT22;10869;52.238;10.716;2023-12-29T06:19:07;7.80;99.90
21417;DHT22;10869;52.238;10.716;2023-12-29T06:21:39;7.80;99.90
21417;DHT22;10869;52.238;10.716;2023-12-29T06:24:08;7.70;99.90
21417;DHT22;10869;52.238;10.716;2023-12-29T06:26:33;7.70;99.90
21417;DHT22;10869;52.238;10.716;2023-12-29T06:28:59;7.70;99.90
21417;DHT22;10869;52.238;10.716;2023-12-29T06:31:25;7.70;99.90
21417;DHT22;10869;52.238;10.716;2023-12-29T06:33:51;7.70;99.90
21417;DHT22;10869;52.238;10.716;2023-12-29T06:36:17;7.70;99.90
21417;DHT22;10869;52.238;10.716;2023-12-29T06:38:43;7.70;99.90
21417;DHT22;10869;52.238;10.716;2023-12-29T06:41:14;7.70;99.90
21417;DHT22;10869;52.238;10.716;2023-12-29T06:43:39;7.70;99.90
21417;DHT22;10869;52.238;10.716;2023-12-29T06:46:05;7.70;99.90
21417;DHT22;10869;52.238;10.716;2023-12-29T06:48:37;7.70;99.90
21417;DHT22;10869;52.238;10.716;2023-12-29T06:51:03;7.70;99.90
21417;DHT22;10869;52.238;10.716;2023-12-29T06:53:29;7.70;99.90
21417;DHT22;10869;52.238;10.716;2023-12-29T06:55:55;7.70;99.90
21417;DHT22;10869;52.238;10.716;2023-12-29T06:58:22;7.80;99.90
21417;DHT22;10869;52.238;10.716;2023-12-29T07:00:48;7.70;99.90
21417;DHT22;10869;52.238;10.716;2023-12-29T07:06:40;7.80;99.90
21417;DHT22;10869;52.238;10.716;2023-12-29T07:09:09;7.80;99.90
21417;DHT22;10869;52.238;10.716;2023-12-29T07:11:39;7.70;99.90
21417;DHT22;10869;52.238;10.716;2023-12-29T07:14:06;7.70;99.90
21417;DHT22;10869;52.238;10.716;2023-12-29T07:16:32;7.70;99.90
21417;DHT22;10869;52.238;10.716;2023-12-29T07:18:58;7.70;99.90
21417;DHT22;10869;52.238;10.716;2023-12-29T07:21:24;7.70;99.90
21417;DHT22;10869;52.238;10.716;2023-12-29T07:27:14;7.80;99.90
21417;DHT22;10869;52.238;10.716;2023-12-29T08:44:48;8.90;99.90
21417;DHT22;10869;52.238;10.716;2023-12-29T08:47:27;8.90;99.90
21417;DHT22;10869;52.238;10.716;2023-12-29T08:49:53;8.90;99.90
21417;DHT22;10869;52.238;10.716;2023-12-29T08:52:22;9.00;99.90
21417;DHT22;10869;52.238;10.716;2023-12-29T08:54:48;9.00;99.90
21417;DHT22;10869;52.238;10.716;2023-12-29T08:57:14;9.00;99.90
21417;DHT22;10869;52.238;10.716;2023-12-29T08:59:40;9.00;99.90
21417;DHT22;10869;52.238;10.716;2023-12-29T09:02:06;9.00;99.90
21417;DHT22;10869;52.238;10.716;2023-12-29T09:04:32;9.00;99.90
21417;DHT22;10869;52.238;10.716;2023-12-29T09:06:58;9.00;99.90
21417;DHT22;10869;52.238;10.716;2023-12-29T09:09:23;9.10;99.90
21417;DHT22;10869;52.238;10.716;2023-12-29T09:15:14;9.20;99.90
21417;DHT22;10869;52.238;10.716;2023-12-29T09:17:40;9.20;99.90
21417;DHT22;10869;52.238;10.716;2023-12-29T09:20:06;9.20;99.90
21417;DHT22;10869;52.238;10.716;2023-12-29T09:22:33;9.30;99.90
21417;DHT22;10869;52.238;10.716;2023-12-29T09:24:59;9.30;99.90
21417;DHT22;10869;52.238;10.716;2023-12-29T09:27:25;9.30;99.90
21417;DHT22;10869;52.238;10.716;2023-12-29T09:29:52;9.30;99.90
21417;DHT22;10869;52.238;10.716;2023-12-29T09:32:17;9.30;99.90
21417;DHT22;10869;52.238;10.716;2023-12-29T09:34:44;9.30;99.90
21417;DHT22;10869;52.238;10.716;2023-12-29T09:37:10;9.40;99.90
21417;DHT22;10869;52.238;10.716;2023-12-29T09:39:36;9.50;99.90
21417;DHT22;10869;52.238;10.716;2023-12-29T09:42:10;9.60;99.90
21417;DHT22;10869;52.238;10.716;2023-12-29T09:44:51;9.70;99.90
21417;DHT22;10869;52.238;10.716;2023-12-29T09:47:24;9.70;99.90
21417;DHT22;10869;52.238;10.716;2023-12-29T09:56:37;9.70;99.90
21417;DHT22;10869;52.238;10.716;2023-12-29T09:59:04;9.60;99.90
21417;DHT22;10869;52.238;10.716;2023-12-29T10:01:30;9.60;99.90
21417;DHT22;10869;52.238;10.716;2023-12-29T10:07:26;9.60;99.90
21417;DHT22;10869;52.238;10.716;2023-12-29T10:10:01;9.60;99.90
21417;DHT22;10869;52.238;10.716;2023-12-29T10:12:29;9.50;99.90
21417;DHT22;10869;52.238;10.716;2023-12-29T10:15:06;9.40;99.90
21417;DHT22;10869;52.238;10.716;2023-12-29T10:25:34;8.90;99.90
21417;DHT22;10869;52.238;10.716;2023-12-29T10:36:50;8.40;99.90
21417;DHT22;10869;52.238;10.716;2023-12-29T10:43:08;8.30;99.90
21417;DHT22;10869;52.238;10.716;2023-12-29T10:45:35;8.30;99.90
21417;DHT22;10869;52.238;10.716;2023-12-29T10:48:02;8.30;99.90
21417;DHT22;10869;52.238;10.716;2023-12-29T10:56:26;8.40;99.90
21417;DHT22;10869;52.238;10.716;2023-12-29T10:59:12;8.40;99.90
21417;DHT22;10869;52.238;10.716;2023-12-29T11:01:39;8.40;99.90
21417;DHT22;10869;52.238;10.716;2023-12-29T11:04:06;8.50;99.90
21417;DHT22;10869;52.238;10.716;2023-12-29T11:06:43;8.50;99.90
21417;DHT22;10869;52.238;10.716;2023-12-29T11:09:11;8.50;99.90
21417;DHT22;10869;52.238;10.716;2023-12-29T11:11:37;8.60;99.90
21417;DHT22;10869;52.238;10.716;2023-12-29T11:14:14;8.60;99.90
21417;DHT22;10869;52.238;10.716;2023-12-29T11:27:14;8.70;99.90
21417;DHT22;10869;52.238;10.716;2023-12-29T11:34:57;8.80;99.90
21417;DHT22;10869;52.238;10.716;2023-12-29T11:40:48;8.90;99.90
21417;DHT22;10869;52.238;10.716;2023-12-29T11:43:19;8.90;99.90
21417;DHT22;10869;52.238;10.716;2023-12-29T11:45:46;9.00;99.90
21417;DHT22;10869;52.238;10.716;2023-12-29T11:48:11;9.00;99.90
21417;DHT22;10869;52.238;10.716;2023-12-29T11:50:39;9.10;99.90
21417;DHT22;10869;52.238;10.716;2023-12-29T11:53:08;9.20;99.90
21417;DHT22;10869;52.238;10.716;2023-12-29T11:55:39;9.30;99.90
21417;DHT22;10869;52.238;10.716;2023-12-29T11:58:26;9.30;99.90
21417;DHT22;10869;52.238;10.716;2023-12-29T12:00:54;9.30;99.90
21417;DHT22;10869;52.238;10.716;2023-12-29T12:03:28;9.40;99.90
21417;DHT22;10869;52.238;10.716;2023-12-29T12:05:57;9.50;99.90
21417;DHT22;10869;52.238;10.716;2023-12-29T12:08:34;9.50;99.90
21417;DHT22;10869;52.238;10.716;2023-12-29T12:13:55;9.60;99.90
21417;DHT22;10869;52.238;10.716;2023-12-29T12:19:09;9.60;99.90
21417;DHT22;10869;52.238;10.716;2023-12-29T12:21:36;9.60;99.90
21417;DHT22;10869;52.238;10.716;2023-12-29T12:24:06;9.60;99.90
21417;DHT22;10869;52.238;10.716;2023-12-29T12:26:32;9.60;99.90
21417;DHT22;10869;52.238;10.716;2023-12-29T12:28:58;9.60;99.90
21417;DHT22;10869;52.238;10.716;2023-12-29T12:31:25;9.60;99.90
21417;DHT22;10869;52.238;10.716;2023-12-29T12:33:54;9.60;99.90
21417;DHT22;10869;52.238;10.716;2023-12-29T12:36:23;9.60;99.90
21417;DHT22;10869;52.238;10.716;2023-12-29T12:38:59;9.60;99.90
21417;DHT22;10869;52.238;10.716;2023-12-29T12:41:26;9.60;99.90
21417;DHT22;10869;52.238;10.716;2023-12-29T12:44:14;9.60;99.90
21417;DHT22;10869;52.238;10.716;2023-12-29T12:47:01;9.60;99.90
21417;DHT22;10869;52.238;10.716;2023-12-29T12:49:31;9.50;99.90
21417;DHT22;10869;52.238;10.716;2023-12-29T12:52:03;9.50;99.90
21417;DHT22;10869;52.238;10.716;2023-12-29T12:54:29;9.40;99.90
21417;DHT22;10869;52.238;10.716;2023-12-29T12:56:55;9.40;99.90
21417;DHT22;10869;52.238;10.716;2023-12-29T12:59:21;9.40;99.90
21417;DHT22;10869;52.238;10.716;2023-12-29T13:01:47;9.40;99.90
21417;DHT22;10869;52.238;10.716;2023-12-29T13:07:35;9.40;99.90
21417;DHT22;10869;52.238;10.716;2023-12-29T13:10:02;9.30;99.90
21417;DHT22;10869;52.238;10.716;2023-12-29T13:12:29;9.30;99.90
21417;DHT22;10869;52.238;10.716;2023-12-29T13:15:08;9.30;99.90
21417;DHT22;10869;52.238;10.716;2023-12-29T13:17:37;9.30;99.90
21417;DHT22;10869;52.238;10.716;2023-12-29T13:20:03;9.30;99.90
21417;DHT22;10869;52.238;10.716;2023-12-29T13:22:30;9.40;99.90
21417;DHT22;10869;52.238;10.716;2023-12-29T13:24:55;9.40;99.90
21417;DHT22;10869;52.238;10.716;2023-12-29T13:27:22;9.30;99.90
21417;DHT22;10869;52.238;10.716;2023-12-29T13:33:16;9.30;99.90
21417;DHT22;10869;52.238;10.716;2023-12-29T13:39:14;9.30;99.90
21417;DHT22;10869;52.238;10.716;2023-12-29T13:41:45;9.30;99.90
21417;DHT22;10869;52.238;10.716;2023-12-29T13:47:42;9.30;99.90
21417;DHT22;10869;52.238;10.716;2023-12-29T13:50:11;9.40;99.90
21417;DHT22;10869;52.238;10.716;2023-12-29T13:52:43;9.40;99.90
21417;DHT22;10869;52.238;10.716;2023-12-29T13:55:09;9.40;99.90
21417;DHT22;10869;52.238;10.716;2023-12-29T13:57:38;9.40;99.90
21417;DHT22;10869;52.238;10.716;2023-12-29T14:00:43;9.40;99.90
21417;DHT22;10869;52.238;10.716;2023-12-29T14:06:42;9.40;99.90
21417;DHT22;10869;52.238;10.716;2023-12-29T14:11:49;9.40;99.90
21417;DHT22;10869;52.238;10.716;2023-12-29T14:14:22;9.40;99.90
21417;DHT22;10869;52.238;10.716;2023-12-29T14:17:09;9.40;99.90
21417;DHT22;10869;52.238;10.716;2023-12-29T14:19:38;9.40;99.90
21417;DHT22;10869;52.238;10.716;2023-12-29T14:22:04;9.40;99.90
21417;DHT22;10869;52.238;10.716;2023-12-29T14:24:32;9.40;99.90
21417;DHT22;10869;52.238;10.716;2023-12-29T14:26:58;9.40;99.90
21417;DHT22;10869;52.238;10.716;2023-12-29T14:29:25;9.40;99.90
21417;DHT22;10869;52.238;10.716;2023-12-29T14:31:54;9.40;99.90
21417;DHT22;10869;52.238;10.716;2023-12-29T14:34:26;9.40;99.90
21417;DHT22;10869;52.238;10.716;2023-12-29T14:36:51;9.30;99.90
21417;DHT22;10869;52.238;10.716;2023-12-29T14:39:17;9.30;99.90
21417;DHT22;10869;52.238;10.716;2023-12-29T14:41:46;9.30;99.90
21417;DHT22;10869;52.238;10.716;2023-12-29T14:44:22;9.30;99.90
21417;DHT22;10869;52.238;10.716;2023-12-29T14:46:49;9.30;99.90
21417;DHT22;10869;52.238;10.716;2023-12-29T14:49:15;9.20;99.90
21417;DHT22;10869;52.238;10.716;2023-12-29T14:51:49;9.20;99.90
21417;DHT22;10869;52.238;10.716;2023-12-29T14:54:15;9.20;99.90
21417;DHT22;10869;52.238;10.716;2023-12-29T14:56:41;9.10;99.90
21417;DHT22;10869;52.238;10.716;2023-12-29T14:59:07;9.10;99.90
21417;DHT22;10869;52.238;10.716;2023-12-29T15:01:32;9.10;99.90
21417;DHT22;10869;52.238;10.716;2023-12-29T15:03:58;9.10;99.90
21417;DHT22;10869;52.238;10.716;2023-12-29T15:06:24;9.00;99.90
21417;DHT22;10869;52.238;10.716;2023-12-29T15:08:50;9.00;99.90
21417;DHT22;10869;52.238;10.716;2023-12-29T15:11:16;9.00;99.90
21417;DHT22;10869;52.238;10.716;2023-12-29T15:13:42;8.90;99.90
21417;DHT22;10869;52.238;10.716;2023-12-29T15:16:08;8.80;99.90
21417;DHT22;10869;52.238;10.716;2023-12-29T15:18:33;8.80;99.90
21417;DHT22;10869;52.238;10.716;2023-12-29T15:20:59;8.70;99.90
21417;DHT22;10869;52.238;10.716;2023-12-29T15:23:25;8.70;99.90
21417;DHT22;10869;52.238;10.716;2023-12-29T15:25:53;8.70;99.90
21417;DHT22;10869;52.238;10.716;2023-12-29T15:31:44;8.60;99.90
21417;DHT22;10869;52.238;10.716;2023-12-29T15:37:33;8.60;99.90
21417;DHT22;10869;52.238;10.716;2023-12-29T15:39:58;8.60;99.90
21417;DHT22;10869;52.238;10.716;2023-12-29T15:42:27;8.60;99.90
21417;DHT22;10869;52.238;10.716;2023-12-29T15:44:53;8.60;99.90
21417;DHT22;10869;52.238;10.716;2023-12-29T15:47:19;8.70;99.90
21417;DHT22;10869;52.238;10.716;2023-12-29T15:49:44;8.70;99.90
21417;DHT22;10869;52.238;10.716;2023-12-29T15:52:10;8.70;99.90
21417;DHT22;10869;52.238;10.716;2023-12-29T15:57:11;8.70;99.90
21417;DHT22;10869;52.238;10.716;2023-12-29T19:29:20;7.40;99.90
21417;DHT22;10869;52.238;10.716;2023-12-29T19:31:45;7.50;99.90
21417;DHT22;10869;52.238;10.716;2023-12-29T19:34:13;7.60;99.90
21417;DHT22;10869;52.238;10.716;2023-12-29T19:40:03;7.60;99.90
21417;DHT22;10869;52.238;10.716;2023-12-29T19:46:04;7.70;99.90
21417;DHT22;10869;52.238;10.716;2023-12-29T19:48:30;7.70;99.90
21417;DHT22;10869;52.238;10.716;2023-12-29T19:51:06;7.80;99.90
21417;DHT22;10869;52.238;10.716;2023-12-29T19:53:33;7.80;99.90
21417;DHT22;10869;52.238;10.716;2023-12-29T19:55:59;7.80;99.90
21417;DHT22;10869;52.238;10.716;2023-12-29T19:58:24;7.80;99.90
21417;DHT22;10869;52.238;10.716;2023-12-29T20:00:59;7.80;99.90
21417;DHT22;10869;52.238;10.716;2023-12-29T20:06:48;7.90;99.90
21417;DHT22;10869;52.238;10.716;2023-12-29T20:09:14;7.90;99.90
21417;DHT22;10869;52.238;10.716;2023-12-29T20:11:41;7.90;99.90
21417;DHT22;10869;52.238;10.716;2023-12-29T20:14:07;7.90;99.90
21417;DHT22;10869;52.238;10.716;2023-12-29T20:19:57;7.90;99.90
21417;DHT22;10869;52.238;10.716;2023-12-29T20:25:45;7.90;99.90
21417;DHT22;10869;52.238;10.716;2023-12-29T20:28:11;7.90;99.90
21417;DHT22;10869;52.238;10.716;2023-12-29T20:30:40;7.90;99.90
21417;DHT22;10869;52.238;10.716;2023-12-29T20:33:06;7.90;99.90
21417;DHT22;10869;52.238;10.716;2023-12-29T20:35:32;7.90;99.90
21417;DHT22;10869;52.238;10.716;2023-12-29T20:37:58;7.90;99.90
21417;DHT22;10869;52.238;10.716;2023-12-29T20:40:23;8.00;99.90
21417;DHT22;10869;52.238;10.716;2023-12-29T20:46:14;8.00;99.90
21417;DHT22;10869;52.238;10.716;2023-12-29T20:48:40;8.00;99.90
21417;DHT22;10869;52.238;10.716;2023-12-29T20:51:06;8.00;99.90
21417;DHT22;10869;52.238;10.716;2023-12-29T20:53:33;8.00;99.90
21417;DHT22;10869;52.238;10.716;2023-12-29T20:56:02;8.00;99.90
21417;DHT22;10869;52.238;10.716;2023-12-29T21:01:54;8.00;99.90
21417;DHT22;10869;52.238;10.716;2023-12-29T21:04:20;8.00;99.90
21417;DHT22;10869;52.238;10.716;2023-12-29T21:15:04;8.00;99.90
21417;DHT22;10869;52.238;10.716;2023-12-29T21:17:31;8.00;99.90
21417;DHT22;10869;52.238;10.716;2023-12-29T21:19:57;8.00;99.90
21417;DHT22;10869;52.238;10.716;2023-12-29T21:22:23;8.00;99.90
21417;DHT22;10869;52.238;10.716;2023-12-29T21:28:13;8.00;99.90
21417;DHT22;10869;52.238;10.716;2023-12-29T21:30:38;8.00;99.90
21417;DHT22;10869;52.238;10.716;2023-12-29T21:33:04;8.00;99.90
21417;DHT22;10869;52.238;10.716;2023-12-29T21:35:30;8.00;99.90
21417;DHT22;10869;52.238;10.716;2023-12-29T21:37:56;8.00;99.90
21417;DHT22;10869;52.238;10.716;2023-12-29T21:43:44;7.90;99.90
21417;DHT22;10869;52.238;10.716;2023-12-29T21:46:10;7.90;99.90
21417;DHT22;10869;52.238;10.716;2023-12-29T21:48:36;7.80;99.90
21417;DHT22;10869;52.238;10.716;2023-12-29T21:54:24;7.80;99.90
21417;DHT22;10869;52.238;10.716;2023-12-29T22:02:47;7.70;99.90
21417;DHT22;10869;52.238;10.716;2023-12-29T22:08:34;7.70;99.90
21417;DHT22;10869;52.238;10.716;2023-12-29T22:11:00;7.60;99.90
21417;DHT22;10869;52.238;10.716;2023-12-29T22:13:26;7.60;99.90
21417;DHT22;10869;52.238;10.716;2023-12-29T22:15:52;7.60;99.90
21417;DHT22;10869;52.238;10.716;2023-12-29T22:18:17;7.50;99.90
21417;DHT22;10869;52.238;10.716;2023-12-29T22:20:43;7.40;99.90
21417;DHT22;10869;52.238;10.716;2023-12-29T22:23:09;7.40;99.90
21417;DHT22;10869;52.238;10.716;2023-12-29T22:25:34;7.40;99.90
21417;DHT22;10869;52.238;10.716;2023-12-29T22:28:03;7.30;99.90
21417;DHT22;10869;52.238;10.716;2023-12-29T22:30:29;7.30;99.90
21417;DHT22;10869;52.238;10.716;2023-12-29T22:32:55;7.30;99.90
21417;DHT22;10869;52.238;10.716;2023-12-29T22:35:20;7.20;99.90
21417;DHT22;10869;52.238;10.716;2023-12-29T22:37:48;7.20;99.90
21417;DHT22;10869;52.238;10.716;2023-12-29T22:40:14;7.20;99.90
21417;DHT22;10869;52.238;10.716;2023-12-29T22:42:41;7.20;99.90
21417;DHT22;10869;52.238;10.716;2023-12-29T22:45:11;7.10;99.90
21417;DHT22;10869;52.238;10.716;2023-12-29T22:47:36;7.10;99.90
21417;DHT22;10869;52.238;10.716;2023-12-29T22:50:02;7.10;99.90
21417;DHT22;10869;52.238;10.716;2023-12-29T22:52:28;7.10;99.90
21417;DHT22;10869;52.238;10.716;2023-12-29T22:54:54;7.10;99.90
21417;DHT22;10869;52.238;10.716;2023-12-29T22:57:19;7.00;99.90
21417;DHT22;10869;52.238;10.716;2023-12-29T22:59:45;7.00;99.90
21417;DHT22;10869;52.238;10.716;2023-12-29T23:02:11;7.00;99.90
21417;DHT22;10869;52.238;10.716;2023-12-29T23:04:36;7.00;99.90
21417;DHT22;10869;52.238;10.716;2023-12-29T23:07:02;7.00;99.90
21417;DHT22;10869;52.238;10.716;2023-12-29T23:09:28;6.90;99.90
21417;DHT22;10869;52.238;10.716;2023-12-29T23:11:57;6.90;99.90
21417;DHT22;10869;52.238;10.716;2023-12-29T23:14:24;6.80;99.90
21417;DHT22;10869;52.238;10.716;2023-12-29T23:16:50;6.80;99.90
21417;DHT22;10869;52.238;10.716;2023-12-29T23:19:16;6.70;99.90
21417;DHT22;10869;52.238;10.716;2023-12-29T23:21:44;6.70;99.90
21417;DHT22;10869;52.238;10.716;2023-12-29T23:24:09;6.60;99.90
21417;DHT22;10869;52.238;10.716;2023-12-29T23:26:42;6.50;99.90
21417;DHT22;10869;52.238;10.716;2023-12-29T23:29:08;6.50;99.90
21417;DHT22;10869;52.238;10.716;2023-12-29T23:31:35;6.50;99.90
21417;DHT22;10869;52.238;10.716;2023-12-29T23:34:00;6.50;99.90
21417;DHT22;10869;52.238;10.716;2023-12-29T23:36:26;6.50;99.90
21417;DHT22;10869;52.238;10.716;2023-12-29T23:38:52;6.50;99.90
21417;DHT22;10869;52.238;10.716;2023-12-29T23:41:18;6.50;99.90
21417;DHT22;10869;52.238;10.716;2023-12-29T23:43:44;6.50;99.90
21417;DHT22;10869;52.238;10.716;2023-12-29T23:46:17;6.60;99.90
21417;DHT22;10869;52.238;10.716;2023-12-29T23:48:43;6.60;99.90
21417;DHT22;10869;52.238;10.716;2023-12-29T23:51:09;6.60;99.90
21417;DHT22;10869;52.238;10.716;2023-12-29T23:53:34;6.70;99.90
21417;DHT22;10869;52.238;10.716;2023-12-29T23:56:00;6.70;99.90
21417;DHT22;10869;52.238;10.716;2023-12-29T23:58:26;6.80;99.90
